sensor_id;sensor_type;location;lat;lon;timestamp;temperature;humidity
43143;DHT22;28750;59.842;17.584;2023-02-13T00:00:18;1.30;99.90
43143;DHT22;28750;59.842;17.584;2023-02-13T00:02:45;1.30;99.90
43143;DHT22;28750;59.842;17.584;2023-02-13T00:05:12;1.20;99.90
43143;DHT22;28750;59.842;17.584;2023-02-13T00:07:39;1.10;99.90
43143;DHT22;28750;59.842;17.584;2023-02-13T00:10:07;1.20;99.90
43143;DHT22;28750;59.842;17.584;2023-02-13T00:12:34;1.20;99.90
43143;DHT22;28750;59.842;17.584;2023-02-13T00:15:01;1.40;99.90
43143;DHT22;28750;59.842;17.584;2023-02-13T00:17:28;1.30;99.90
43143;DHT22;28750;59.842;17.584;2023-02-13T00:19:55;1.40;99.90
43143;DHT22;28750;59.842;17.584;2023-02-13T00:22:22;1.40;99.90
43143;DHT22;28750;59.842;17.584;2023-02-13T00:24:49;1.40;99.90
43143;DHT22;28750;59.842;17.584;2023-02-13T00:27:17;1.30;99.90
43143;DHT22;28750;59.842;17.584;2023-02-13T00:29:44;1.30;99.90
43143;DHT22;28750;59.842;17.584;2023-02-13T00:32:11;1.10;99.90
43143;DHT22;28750;59.842;17.584;2023-02-13T00:34:38;1.00;99.90
43143;DHT22;28750;59.842;17.584;2023-02-13T00:37:05;1.00;99.90
43143;DHT22;28750;59.842;17.584;2023-02-13T00:39:32;1.00;99.90
43143;DHT22;28750;59.842;17.584;2023-02-13T00:41:58;0.90;99.90
43143;DHT22;28750;59.842;17.584;2023-02-13T00:44:25;1.20;99.90
43143;DHT22;28750;59.842;17.584;2023-02-13T00:46:52;1.20;99.90
43143;DHT22;28750;59.842;17.584;2023-02-13T00:49:19;1.10;99.90
43143;DHT22;28750;59.842;17.584;2023-02-13T00:51:47;1.00;99.90
43143;DHT22;28750;59.842;17.584;2023-02-13T00:54:14;0.80;99.90
43143;DHT22;28750;59.842;17.584;2023-02-13T00:56:41;0.80;99.90
43143;DHT22;28750;59.842;17.584;2023-02-13T00:59:07;0.70;99.90
43143;DHT22;28750;59.842;17.584;2023-02-13T01:01:34;0.90;99.90
43143;DHT22;28750;59.842;17.584;2023-02-13T01:04:01;0.90;99.90
43143;DHT22;28750;59.842;17.584;2023-02-13T01:06:28;0.80;99.90
43143;DHT22;28750;59.842;17.584;2023-02-13T01:08:55;0.90;99.90
43143;DHT22;28750;59.842;17.584;2023-02-13T01:11:22;1.00;99.90
43143;DHT22;28750;59.842;17.584;2023-02-13T01:13:49;1.00;99.90
43143;DHT22;28750;59.842;17.584;2023-02-13T01:16:16;1.00;99.90
43143;DHT22;28750;59.842;17.584;2023-02-13T01:18:44;1.10;99.90
43143;DHT22;28750;59.842;17.584;2023-02-13T01:21:16;1.20;99.90
43143;DHT22;28750;59.842;17.584;2023-02-13T01:23:44;1.00;99.90
43143;DHT22;28750;59.842;17.584;2023-02-13T01:26:20;1.00;99.90
43143;DHT22;28750;59.842;17.584;2023-02-13T01:28:47;1.10;99.90
43143;DHT22;28750;59.842;17.584;2023-02-13T01:31:14;1.10;99.90
43143;DHT22;28750;59.842;17.584;2023-02-13T01:33:41;1.00;99.90
43143;DHT22;28750;59.842;17.584;2023-02-13T01:36:09;1.00;99.90
43143;DHT22;28750;59.842;17.584;2023-02-13T01:38:37;0.90;99.90
43143;DHT22;28750;59.842;17.584;2023-02-13T01:41:04;0.70;99.90
43143;DHT22;28750;59.842;17.584;2023-02-13T01:46:17;0.70;99.90
43143;DHT22;28750;59.842;17.584;2023-02-13T01:48:46;0.80;99.90
43143;DHT22;28750;59.842;17.584;2023-02-13T01:51:19;0.80;99.90
43143;DHT22;28750;59.842;17.584;2023-02-13T01:54:04;0.70;99.90
43143;DHT22;28750;59.842;17.584;2023-02-13T01:56:39;0.80;99.90
43143;DHT22;28750;59.842;17.584;2023-02-13T01:59:10;0.80;99.90
43143;DHT22;28750;59.842;17.584;2023-02-13T02:01:38;0.90;99.90
43143;DHT22;28750;59.842;17.584;2023-02-13T02:04:24;0.90;99.90
43143;DHT22;28750;59.842;17.584;2023-02-13T02:06:56;1.00;99.90
43143;DHT22;28750;59.842;17.584;2023-02-13T02:09:31;1.00;99.90
43143;DHT22;28750;59.842;17.584;2023-02-13T02:14:29;0.90;99.90
43143;DHT22;28750;59.842;17.584;2023-02-13T02:16:57;1.00;99.90
43143;DHT22;28750;59.842;17.584;2023-02-13T02:20:22;1.00;99.90
43143;DHT22;28750;59.842;17.584;2023-02-13T02:25:49;1.00;99.90
43143;DHT22;28750;59.842;17.584;2023-02-13T02:34:11;1.20;99.90
43143;DHT22;28750;59.842;17.584;2023-02-13T02:37:12;1.50;99.90
43143;DHT22;28750;59.842;17.584;2023-02-13T02:48:28;1.60;99.90
43143;DHT22;28750;59.842;17.584;2023-02-13T02:54:39;1.50;99.90
43143;DHT22;28750;59.842;17.584;2023-02-13T02:57:29;1.50;99.90
43143;DHT22;28750;59.842;17.584;2023-02-13T03:00:19;1.50;99.90
43143;DHT22;28750;59.842;17.584;2023-02-13T03:03:14;1.40;99.90
43143;DHT22;28750;59.842;17.584;2023-02-13T03:06:02;1.40;99.90
43143;DHT22;28750;59.842;17.584;2023-02-13T03:08:42;1.40;99.90
43143;DHT22;28750;59.842;17.584;2023-02-13T03:11:27;1.30;99.90
43143;DHT22;28750;59.842;17.584;2023-02-13T03:14:14;1.20;99.90
43143;DHT22;28750;59.842;17.584;2023-02-13T03:16:42;1.20;99.90
43143;DHT22;28750;59.842;17.584;2023-02-13T03:22:44;1.10;99.90
43143;DHT22;28750;59.842;17.584;2023-02-13T03:25:21;1.20;99.90
43143;DHT22;28750;59.842;17.584;2023-02-13T03:28:13;1.20;99.90
43143;DHT22;28750;59.842;17.584;2023-02-13T03:31:35;1.10;99.90
43143;DHT22;28750;59.842;17.584;2023-02-13T03:34:01;1.00;99.90
43143;DHT22;28750;59.842;17.584;2023-02-13T03:40:25;1.00;99.90
43143;DHT22;28750;59.842;17.584;2023-02-13T03:43:05;0.90;99.90
43143;DHT22;28750;59.842;17.584;2023-02-13T03:45:36;1.00;99.90
43143;DHT22;28750;59.842;17.584;2023-02-13T03:48:36;0.90;99.90
43143;DHT22;28750;59.842;17.584;2023-02-13T03:51:49;1.00;99.90
43143;DHT22;28750;59.842;17.584;2023-02-13T03:54:32;0.90;99.90
43143;DHT22;28750;59.842;17.584;2023-02-13T03:57:20;0.90;99.90
43143;DHT22;28750;59.842;17.584;2023-02-13T04:00:10;0.90;99.90
43143;DHT22;28750;59.842;17.584;2023-02-13T04:02:44;0.80;99.90
43143;DHT22;28750;59.842;17.584;2023-02-13T04:05:17;1.00;99.90
43143;DHT22;28750;59.842;17.584;2023-02-13T04:07:46;1.10;99.90
43143;DHT22;28750;59.842;17.584;2023-02-13T04:10:15;1.10;99.90
43143;DHT22;28750;59.842;17.584;2023-02-13T04:12:47;1.10;99.90
43143;DHT22;28750;59.842;17.584;2023-02-13T04:15:27;1.30;99.90
43143;DHT22;28750;59.842;17.584;2023-02-13T04:18:09;1.40;99.90
43143;DHT22;28750;59.842;17.584;2023-02-13T04:20:37;1.40;99.90
43143;DHT22;28750;59.842;17.584;2023-02-13T04:23:09;1.40;99.90
43143;DHT22;28750;59.842;17.584;2023-02-13T04:25:39;1.30;99.90
43143;DHT22;28750;59.842;17.584;2023-02-13T04:28:06;1.40;99.90
43143;DHT22;28750;59.842;17.584;2023-02-13T04:30:33;1.30;99.90
43143;DHT22;28750;59.842;17.584;2023-02-13T04:33:00;1.20;99.90
43143;DHT22;28750;59.842;17.584;2023-02-13T04:35:27;1.30;99.90
43143;DHT22;28750;59.842;17.584;2023-02-13T04:37:54;1.20;99.90
43143;DHT22;28750;59.842;17.584;2023-02-13T04:40:21;1.20;99.90
43143;DHT22;28750;59.842;17.584;2023-02-13T04:42:48;1.20;99.90
43143;DHT22;28750;59.842;17.584;2023-02-13T04:45:16;0.90;99.90
43143;DHT22;28750;59.842;17.584;2023-02-13T04:47:48;0.90;99.90
43143;DHT22;28750;59.842;17.584;2023-02-13T04:50:15;0.90;99.90
43143;DHT22;28750;59.842;17.584;2023-02-13T04:52:42;1.10;99.90
43143;DHT22;28750;59.842;17.584;2023-02-13T04:55:09;1.10;99.90
43143;DHT22;28750;59.842;17.584;2023-02-13T04:57:36;1.00;99.90
43143;DHT22;28750;59.842;17.584;2023-02-13T05:00:04;0.80;99.90
43143;DHT22;28750;59.842;17.584;2023-02-13T05:02:31;0.90;99.90
43143;DHT22;28750;59.842;17.584;2023-02-13T05:04:58;0.90;99.90
43143;DHT22;28750;59.842;17.584;2023-02-13T05:07:25;0.90;99.90
43143;DHT22;28750;59.842;17.584;2023-02-13T05:09:52;0.90;99.90
43143;DHT22;28750;59.842;17.584;2023-02-13T05:12:19;0.90;99.90
43143;DHT22;28750;59.842;17.584;2023-02-13T05:14:46;0.80;99.90
43143;DHT22;28750;59.842;17.584;2023-02-13T05:17:13;0.90;99.90
43143;DHT22;28750;59.842;17.584;2023-02-13T05:19:40;0.70;99.90
43143;DHT22;28750;59.842;17.584;2023-02-13T05:22:08;0.70;99.90
43143;DHT22;28750;59.842;17.584;2023-02-13T05:24:52;0.60;99.90
43143;DHT22;28750;59.842;17.584;2023-02-13T05:27:19;0.60;99.90
43143;DHT22;28750;59.842;17.584;2023-02-13T05:29:46;0.60;99.90
43143;DHT22;28750;59.842;17.584;2023-02-13T05:32:13;0.50;99.90
43143;DHT22;28750;59.842;17.584;2023-02-13T05:34:40;0.50;99.90
43143;DHT22;28750;59.842;17.584;2023-02-13T05:37:07;0.60;99.90
43143;DHT22;28750;59.842;17.584;2023-02-13T05:39:34;0.60;99.90
43143;DHT22;28750;59.842;17.584;2023-02-13T05:42:00;0.70;99.90
43143;DHT22;28750;59.842;17.584;2023-02-13T05:44:29;0.50;99.90
43143;DHT22;28750;59.842;17.584;2023-02-13T05:46:56;0.80;99.90
43143;DHT22;28750;59.842;17.584;2023-02-13T05:49:23;0.80;99.90
43143;DHT22;28750;59.842;17.584;2023-02-13T05:51:50;0.80;99.90
43143;DHT22;28750;59.842;17.584;2023-02-13T05:54:17;0.70;99.90
43143;DHT22;28750;59.842;17.584;2023-02-13T05:56:45;0.70;99.90
43143;DHT22;28750;59.842;17.584;2023-02-13T05:59:12;0.80;99.90
43143;DHT22;28750;59.842;17.584;2023-02-13T06:01:39;0.80;99.90
43143;DHT22;28750;59.842;17.584;2023-02-13T06:04:06;0.80;99.90
43143;DHT22;28750;59.842;17.584;2023-02-13T06:06:33;0.80;99.90
43143;DHT22;28750;59.842;17.584;2023-02-13T06:09:00;0.70;99.90
43143;DHT22;28750;59.842;17.584;2023-02-13T06:11:27;0.60;99.90
43143;DHT22;28750;59.842;17.584;2023-02-13T06:13:54;0.70;99.90
43143;DHT22;28750;59.842;17.584;2023-02-13T06:16:21;0.60;99.90
43143;DHT22;28750;59.842;17.584;2023-02-13T06:18:48;0.50;99.90
43143;DHT22;28750;59.842;17.584;2023-02-13T06:21:15;0.50;99.90
43143;DHT22;28750;59.842;17.584;2023-02-13T06:23:42;0.30;99.90
43143;DHT22;28750;59.842;17.584;2023-02-13T06:26:09;0.40;99.90
43143;DHT22;28750;59.842;17.584;2023-02-13T06:28:36;0.60;99.90
43143;DHT22;28750;59.842;17.584;2023-02-13T06:31:03;0.50;99.90
43143;DHT22;28750;59.842;17.584;2023-02-13T06:33:30;0.50;99.90
43143;DHT22;28750;59.842;17.584;2023-02-13T06:35:57;0.50;99.90
43143;DHT22;28750;59.842;17.584;2023-02-13T06:38:24;0.40;99.90
43143;DHT22;28750;59.842;17.584;2023-02-13T06:40:51;0.50;99.90
43143;DHT22;28750;59.842;17.584;2023-02-13T06:43:18;0.50;99.90
43143;DHT22;28750;59.842;17.584;2023-02-13T06:45:45;0.50;99.90
43143;DHT22;28750;59.842;17.584;2023-02-13T06:48:12;0.40;99.90
43143;DHT22;28750;59.842;17.584;2023-02-13T06:50:40;0.50;99.90
43143;DHT22;28750;59.842;17.584;2023-02-13T06:53:07;0.50;99.90
43143;DHT22;28750;59.842;17.584;2023-02-13T06:55:34;0.40;99.90
43143;DHT22;28750;59.842;17.584;2023-02-13T06:58:04;0.40;99.90
43143;DHT22;28750;59.842;17.584;2023-02-13T07:00:31;0.30;99.90
43143;DHT22;28750;59.842;17.584;2023-02-13T07:03:02;0.40;99.90
43143;DHT22;28750;59.842;17.584;2023-02-13T07:05:30;0.30;99.90
43143;DHT22;28750;59.842;17.584;2023-02-13T07:07:57;0.20;99.90
43143;DHT22;28750;59.842;17.584;2023-02-13T07:10:24;0.40;99.90
43143;DHT22;28750;59.842;17.584;2023-02-13T07:12:51;0.20;99.90
43143;DHT22;28750;59.842;17.584;2023-02-13T07:15:18;0.10;99.90
43143;DHT22;28750;59.842;17.584;2023-02-13T07:17:45;0.40;99.90
43143;DHT22;28750;59.842;17.584;2023-02-13T07:20:12;0.50;99.90
43143;DHT22;28750;59.842;17.584;2023-02-13T07:22:39;0.50;99.90
43143;DHT22;28750;59.842;17.584;2023-02-13T07:25:06;0.40;99.90
43143;DHT22;28750;59.842;17.584;2023-02-13T07:27:33;0.60;99.90
43143;DHT22;28750;59.842;17.584;2023-02-13T07:30:00;0.70;99.90
43143;DHT22;28750;59.842;17.584;2023-02-13T07:32:27;0.60;99.90
43143;DHT22;28750;59.842;17.584;2023-02-13T07:34:54;0.70;99.90
43143;DHT22;28750;59.842;17.584;2023-02-13T07:37:21;0.60;99.90
43143;DHT22;28750;59.842;17.584;2023-02-13T07:39:48;0.80;99.90
43143;DHT22;28750;59.842;17.584;2023-02-13T07:42:15;0.80;99.90
43143;DHT22;28750;59.842;17.584;2023-02-13T07:44:42;1.00;99.90
43143;DHT22;28750;59.842;17.584;2023-02-13T07:47:09;1.10;99.90
43143;DHT22;28750;59.842;17.584;2023-02-13T07:49:36;1.30;99.90
43143;DHT22;28750;59.842;17.584;2023-02-13T07:52:04;1.30;99.90
43143;DHT22;28750;59.842;17.584;2023-02-13T07:54:31;1.60;99.90
43143;DHT22;28750;59.842;17.584;2023-02-13T07:56:58;1.80;99.90
43143;DHT22;28750;59.842;17.584;2023-02-13T07:59:25;1.80;99.90
43143;DHT22;28750;59.842;17.584;2023-02-13T08:01:52;1.90;99.90
43143;DHT22;28750;59.842;17.584;2023-02-13T08:04:19;1.80;99.90
43143;DHT22;28750;59.842;17.584;2023-02-13T08:06:47;2.00;99.90
43143;DHT22;28750;59.842;17.584;2023-02-13T08:09:18;2.00;99.90
43143;DHT22;28750;59.842;17.584;2023-02-13T08:12:05;2.00;99.90
43143;DHT22;28750;59.842;17.584;2023-02-13T08:14:33;2.20;99.90
43143;DHT22;28750;59.842;17.584;2023-02-13T08:17:00;2.30;99.90
43143;DHT22;28750;59.842;17.584;2023-02-13T08:19:27;2.30;99.90
43143;DHT22;28750;59.842;17.584;2023-02-13T08:21:55;2.30;99.90
43143;DHT22;28750;59.842;17.584;2023-02-13T08:24:22;2.40;99.90
43143;DHT22;28750;59.842;17.584;2023-02-13T08:26:49;2.40;99.90
43143;DHT22;28750;59.842;17.584;2023-02-13T08:29:16;2.50;99.90
43143;DHT22;28750;59.842;17.584;2023-02-13T08:31:43;2.60;99.90
43143;DHT22;28750;59.842;17.584;2023-02-13T08:34:10;2.70;99.90
43143;DHT22;28750;59.842;17.584;2023-02-13T08:36:37;2.80;99.90
43143;DHT22;28750;59.842;17.584;2023-02-13T08:39:04;2.90;99.90
43143;DHT22;28750;59.842;17.584;2023-02-13T08:41:31;3.00;99.90
43143;DHT22;28750;59.842;17.584;2023-02-13T08:43:57;3.10;99.90
43143;DHT22;28750;59.842;17.584;2023-02-13T08:46:24;3.30;99.90
43143;DHT22;28750;59.842;17.584;2023-02-13T08:48:51;3.30;99.90
43143;DHT22;28750;59.842;17.584;2023-02-13T08:51:18;3.40;99.90
43143;DHT22;28750;59.842;17.584;2023-02-13T08:53:45;3.50;99.90
43143;DHT22;28750;59.842;17.584;2023-02-13T08:56:12;3.50;99.90
43143;DHT22;28750;59.842;17.584;2023-02-13T08:58:39;3.50;99.90
43143;DHT22;28750;59.842;17.584;2023-02-13T09:01:07;3.50;99.90
43143;DHT22;28750;59.842;17.584;2023-02-13T09:03:34;3.50;99.90
43143;DHT22;28750;59.842;17.584;2023-02-13T09:06:01;3.70;99.90
43143;DHT22;28750;59.842;17.584;2023-02-13T09:08:28;3.70;99.90
43143;DHT22;28750;59.842;17.584;2023-02-13T09:10:58;3.50;99.90
43143;DHT22;28750;59.842;17.584;2023-02-13T09:13:29;3.60;99.90
43143;DHT22;28750;59.842;17.584;2023-02-13T09:15:59;3.90;99.90
43143;DHT22;28750;59.842;17.584;2023-02-13T09:18:27;4.00;99.90
43143;DHT22;28750;59.842;17.584;2023-02-13T09:20:59;4.00;99.90
43143;DHT22;28750;59.842;17.584;2023-02-13T09:23:29;3.90;74.70
43143;DHT22;28750;59.842;17.584;2023-02-13T09:25:58;3.90;99.90
43143;DHT22;28750;59.842;17.584;2023-02-13T09:28:28;3.90;99.90
43143;DHT22;28750;59.842;17.584;2023-02-13T09:30:55;3.90;99.90
43143;DHT22;28750;59.842;17.584;2023-02-13T09:33:23;4.00;99.90
43143;DHT22;28750;59.842;17.584;2023-02-13T09:35:50;4.00;87.80
43143;DHT22;28750;59.842;17.584;2023-02-13T09:38:17;4.10;27.20
43143;DHT22;28750;59.842;17.584;2023-02-13T09:40:52;4.00;1.00
43143;DHT22;28750;59.842;17.584;2023-02-13T09:43:43;4.00;50.00
43143;DHT22;28750;59.842;17.584;2023-02-13T09:46:18;4.20;1.00
43143;DHT22;28750;59.842;17.584;2023-02-13T09:48:50;4.20;1.00
43143;DHT22;28750;59.842;17.584;2023-02-13T09:51:19;4.20;99.90
43143;DHT22;28750;59.842;17.584;2023-02-13T09:53:56;4.10;1.00
43143;DHT22;28750;59.842;17.584;2023-02-13T10:02:21;4.10;99.90
43143;DHT22;28750;59.842;17.584;2023-02-13T10:07:45;4.30;99.90
43143;DHT22;28750;59.842;17.584;2023-02-13T10:10:18;4.40;99.90
43143;DHT22;28750;59.842;17.584;2023-02-13T10:15:53;4.40;99.90
43143;DHT22;28750;59.842;17.584;2023-02-13T10:18:27;4.60;99.90
43143;DHT22;28750;59.842;17.584;2023-02-13T10:21:00;4.70;1.00
43143;DHT22;28750;59.842;17.584;2023-02-13T10:23:44;4.80;99.90
43143;DHT22;28750;59.842;17.584;2023-02-13T10:26:25;4.80;35.10
43143;DHT22;28750;59.842;17.584;2023-02-13T10:32:10;4.90;99.90
43143;DHT22;28750;59.842;17.584;2023-02-13T10:34:45;4.90;99.90
43143;DHT22;28750;59.842;17.584;2023-02-13T10:37:16;4.90;99.90
43143;DHT22;28750;59.842;17.584;2023-02-13T10:39:45;4.80;99.90
43143;DHT22;28750;59.842;17.584;2023-02-13T10:42:31;4.90;99.90
43143;DHT22;28750;59.842;17.584;2023-02-13T10:48:15;4.90;29.30
43143;DHT22;28750;59.842;17.584;2023-02-13T10:51:11;5.10;1.00
43143;DHT22;28750;59.842;17.584;2023-02-13T10:54:08;5.10;1.00
43143;DHT22;28750;59.842;17.584;2023-02-13T10:57:07;5.20;99.90
43143;DHT22;28750;59.842;17.584;2023-02-13T11:02:29;5.30;99.90
43143;DHT22;28750;59.842;17.584;2023-02-13T11:05:00;5.40;99.90
43143;DHT22;28750;59.842;17.584;2023-02-13T11:07:28;5.50;1.00
43143;DHT22;28750;59.842;17.584;2023-02-13T11:10:01;5.50;1.00
43143;DHT22;28750;59.842;17.584;2023-02-13T11:12:32;5.50;1.00
43143;DHT22;28750;59.842;17.584;2023-02-13T11:15:02;5.40;1.00
43143;DHT22;28750;59.842;17.584;2023-02-13T11:17:33;5.50;1.00
43143;DHT22;28750;59.842;17.584;2023-02-13T11:20:05;5.50;1.00
43143;DHT22;28750;59.842;17.584;2023-02-13T11:22:38;5.70;99.90
43143;DHT22;28750;59.842;17.584;2023-02-13T11:25:27;5.70;99.90
43143;DHT22;28750;59.842;17.584;2023-02-13T11:28:16;5.60;99.90
43143;DHT22;28750;59.842;17.584;2023-02-13T11:30:44;5.80;99.90
43143;DHT22;28750;59.842;17.584;2023-02-13T11:35:45;5.90;99.90
43143;DHT22;28750;59.842;17.584;2023-02-13T11:40:44;5.90;99.90
43143;DHT22;28750;59.842;17.584;2023-02-13T11:43:31;5.80;99.90
43143;DHT22;28750;59.842;17.584;2023-02-13T11:48:28;5.70;1.00
43143;DHT22;28750;59.842;17.584;2023-02-13T11:50:56;6.00;99.90
43143;DHT22;28750;59.842;17.584;2023-02-13T11:53:35;5.80;99.90
43143;DHT22;28750;59.842;17.584;2023-02-13T11:56:12;6.10;99.90
43143;DHT22;28750;59.842;17.584;2023-02-13T11:58:41;6.00;99.90
43143;DHT22;28750;59.842;17.584;2023-02-13T12:01:24;6.00;99.90
43143;DHT22;28750;59.842;17.584;2023-02-13T12:04:17;6.10;99.90
43143;DHT22;28750;59.842;17.584;2023-02-13T12:07:10;6.20;99.90
43143;DHT22;28750;59.842;17.584;2023-02-13T12:09:39;6.00;99.90
43143;DHT22;28750;59.842;17.584;2023-02-13T12:12:15;5.80;99.90
43143;DHT22;28750;59.842;17.584;2023-02-13T12:14:44;5.90;99.90
43143;DHT22;28750;59.842;17.584;2023-02-13T12:17:16;5.90;99.90
43143;DHT22;28750;59.842;17.584;2023-02-13T12:19:46;5.90;99.90
43143;DHT22;28750;59.842;17.584;2023-02-13T12:39:17;6.60;99.90
43143;DHT22;28750;59.842;17.584;2023-02-13T12:42:24;6.50;99.90
43143;DHT22;28750;59.842;17.584;2023-02-13T12:47:43;6.10;1.00
43143;DHT22;28750;59.842;17.584;2023-02-13T12:58:33;6.00;1.00
43143;DHT22;28750;59.842;17.584;2023-02-13T13:07:10;6.00;97.30
43143;DHT22;28750;59.842;17.584;2023-02-13T13:40:25;5.90;99.90
43143;DHT22;28750;59.842;17.584;2023-02-13T13:45:53;5.70;99.90
43143;DHT22;28750;59.842;17.584;2023-02-13T13:51:19;5.90;54.00
43143;DHT22;28750;59.842;17.584;2023-02-13T14:07:50;5.80;99.90
43143;DHT22;28750;59.842;17.584;2023-02-13T14:13:09;6.00;99.90
43143;DHT22;28750;59.842;17.584;2023-02-13T14:15:54;6.10;97.10
43143;DHT22;28750;59.842;17.584;2023-02-13T14:18:23;6.10;1.00
43143;DHT22;28750;59.842;17.584;2023-02-13T14:20:58;6.20;1.00
43143;DHT22;28750;59.842;17.584;2023-02-13T14:31:37;6.20;99.90
43143;DHT22;28750;59.842;17.584;2023-02-13T14:34:28;6.30;1.00
43143;DHT22;28750;59.842;17.584;2023-02-13T14:37:06;6.30;99.90
43143;DHT22;28750;59.842;17.584;2023-02-13T14:39:42;6.20;99.90
43143;DHT22;28750;59.842;17.584;2023-02-13T14:42:27;6.10;99.90
43143;DHT22;28750;59.842;17.584;2023-02-13T14:44:57;6.10;99.90
43143;DHT22;28750;59.842;17.584;2023-02-13T14:47:36;6.10;99.90
43143;DHT22;28750;59.842;17.584;2023-02-13T14:50:06;5.90;1.00
43143;DHT22;28750;59.842;17.584;2023-02-13T14:52:38;5.80;1.00
43143;DHT22;28750;59.842;17.584;2023-02-13T14:58:11;5.80;1.00
43143;DHT22;28750;59.842;17.584;2023-02-13T15:03:57;5.70;68.10
43143;DHT22;28750;59.842;17.584;2023-02-13T15:06:30;5.70;79.80
43143;DHT22;28750;59.842;17.584;2023-02-13T15:09:05;5.40;99.90
43143;DHT22;28750;59.842;17.584;2023-02-13T15:11:42;5.70;99.90
43143;DHT22;28750;59.842;17.584;2023-02-13T15:14:31;5.60;99.90
43143;DHT22;28750;59.842;17.584;2023-02-13T15:17:12;5.40;99.90
43143;DHT22;28750;59.842;17.584;2023-02-13T15:19:50;5.40;99.90
43143;DHT22;28750;59.842;17.584;2023-02-13T15:24:59;5.10;99.90
43143;DHT22;28750;59.842;17.584;2023-02-13T15:27:37;5.00;1.00
43143;DHT22;28750;59.842;17.584;2023-02-13T15:30:22;5.20;1.00
43143;DHT22;28750;59.842;17.584;2023-02-13T15:33:02;5.10;1.00
43143;DHT22;28750;59.842;17.584;2023-02-13T15:35:35;4.70;27.60
43143;DHT22;28750;59.842;17.584;2023-02-13T15:41:07;4.90;99.90
43143;DHT22;28750;59.842;17.584;2023-02-13T15:43:43;4.90;99.90
43143;DHT22;28750;59.842;17.584;2023-02-13T15:46:30;4.80;99.90
43143;DHT22;28750;59.842;17.584;2023-02-13T15:49:15;4.80;99.90
43143;DHT22;28750;59.842;17.584;2023-02-13T15:51:44;4.70;99.90
43143;DHT22;28750;59.842;17.584;2023-02-13T15:54:24;4.60;99.90
43143;DHT22;28750;59.842;17.584;2023-02-13T15:56:59;4.60;99.90
43143;DHT22;28750;59.842;17.584;2023-02-13T15:59:36;4.60;99.90
43143;DHT22;28750;59.842;17.584;2023-02-13T16:02:17;4.70;99.90
43143;DHT22;28750;59.842;17.584;2023-02-13T16:04:46;4.70;99.90
43143;DHT22;28750;59.842;17.584;2023-02-13T16:07:16;4.80;99.90
43143;DHT22;28750;59.842;17.584;2023-02-13T16:09:43;4.70;99.90
43143;DHT22;28750;59.842;17.584;2023-02-13T16:12:24;4.60;99.90
43143;DHT22;28750;59.842;17.584;2023-02-13T16:15:00;4.60;99.90
43143;DHT22;28750;59.842;17.584;2023-02-13T16:17:33;4.40;99.90
43143;DHT22;28750;59.842;17.584;2023-02-13T16:22:43;4.50;99.90
43143;DHT22;28750;59.842;17.584;2023-02-13T16:27:46;4.60;99.90
43143;DHT22;28750;59.842;17.584;2023-02-13T16:32:50;4.40;99.90
43143;DHT22;28750;59.842;17.584;2023-02-13T16:35:29;4.20;99.90
43143;DHT22;28750;59.842;17.584;2023-02-13T16:37:58;4.30;99.90
43143;DHT22;28750;59.842;17.584;2023-02-13T16:40:38;4.20;1.00
43143;DHT22;28750;59.842;17.584;2023-02-13T16:43:42;4.10;1.00
43143;DHT22;28750;59.842;17.584;2023-02-13T16:51:12;4.10;1.00
43143;DHT22;28750;59.842;17.584;2023-02-13T16:53:39;4.10;44.50
43143;DHT22;28750;59.842;17.584;2023-02-13T16:56:08;4.10;1.00
43143;DHT22;28750;59.842;17.584;2023-02-13T16:58:36;4.00;47.10
43143;DHT22;28750;59.842;17.584;2023-02-13T17:01:04;4.10;1.00
43143;DHT22;28750;59.842;17.584;2023-02-13T17:03:31;4.20;1.00
43143;DHT22;28750;59.842;17.584;2023-02-13T17:06:02;4.10;1.00
43143;DHT22;28750;59.842;17.584;2023-02-13T17:08:31;4.00;1.00
43143;DHT22;28750;59.842;17.584;2023-02-13T17:11:04;3.90;16.80
43143;DHT22;28750;59.842;17.584;2023-02-13T17:13:32;3.90;97.70
43143;DHT22;28750;59.842;17.584;2023-02-13T17:15:59;3.80;99.90
43143;DHT22;28750;59.842;17.584;2023-02-13T17:18:26;4.00;99.90
43143;DHT22;28750;59.842;17.584;2023-02-13T17:20:53;4.10;28.90
43143;DHT22;28750;59.842;17.584;2023-02-13T17:23:22;4.00;99.90
43143;DHT22;28750;59.842;17.584;2023-02-13T17:25:51;4.10;1.00
43143;DHT22;28750;59.842;17.584;2023-02-13T17:28:22;4.10;1.00
43143;DHT22;28750;59.842;17.584;2023-02-13T17:30:51;4.20;99.90
43143;DHT22;28750;59.842;17.584;2023-02-13T17:33:23;4.30;99.90
43143;DHT22;28750;59.842;17.584;2023-02-13T17:35:51;4.30;99.90
43143;DHT22;28750;59.842;17.584;2023-02-13T17:38:18;4.40;99.90
43143;DHT22;28750;59.842;17.584;2023-02-13T17:40:46;4.20;99.90
43143;DHT22;28750;59.842;17.584;2023-02-13T17:43:15;4.10;99.90
43143;DHT22;28750;59.842;17.584;2023-02-13T17:45:42;4.00;99.90
43143;DHT22;28750;59.842;17.584;2023-02-13T17:48:11;3.80;1.00
43143;DHT22;28750;59.842;17.584;2023-02-13T17:50:38;3.90;1.00
43143;DHT22;28750;59.842;17.584;2023-02-13T17:53:20;4.10;1.00
43143;DHT22;28750;59.842;17.584;2023-02-13T17:55:48;4.10;1.00
43143;DHT22;28750;59.842;17.584;2023-02-13T17:58:15;4.10;1.00
43143;DHT22;28750;59.842;17.584;2023-02-13T18:00:42;3.90;1.00
43143;DHT22;28750;59.842;17.584;2023-02-13T18:03:10;3.90;1.00
43143;DHT22;28750;59.842;17.584;2023-02-13T18:05:38;4.00;1.00
43143;DHT22;28750;59.842;17.584;2023-02-13T18:08:05;4.00;1.00
43143;DHT22;28750;59.842;17.584;2023-02-13T18:10:34;4.00;1.00
43143;DHT22;28750;59.842;17.584;2023-02-13T18:13:02;3.80;4.00
43143;DHT22;28750;59.842;17.584;2023-02-13T18:15:31;3.60;99.90
43143;DHT22;28750;59.842;17.584;2023-02-13T18:17:59;3.70;99.90
43143;DHT22;28750;59.842;17.584;2023-02-13T18:20:26;3.80;95.80
43143;DHT22;28750;59.842;17.584;2023-02-13T18:22:53;4.00;11.60
43143;DHT22;28750;59.842;17.584;2023-02-13T18:25:20;3.90;1.00
43143;DHT22;28750;59.842;17.584;2023-02-13T18:27:48;4.00;1.00
43143;DHT22;28750;59.842;17.584;2023-02-13T18:30:17;3.80;1.00
43143;DHT22;28750;59.842;17.584;2023-02-13T18:32:49;4.00;1.00
43143;DHT22;28750;59.842;17.584;2023-02-13T18:35:16;3.90;99.90
43143;DHT22;28750;59.842;17.584;2023-02-13T18:37:44;3.90;1.00
43143;DHT22;28750;59.842;17.584;2023-02-13T18:40:11;3.90;1.00
43143;DHT22;28750;59.842;17.584;2023-02-13T18:42:39;3.90;1.00
43143;DHT22;28750;59.842;17.584;2023-02-13T18:45:07;4.00;1.00
43143;DHT22;28750;59.842;17.584;2023-02-13T18:47:34;3.80;1.00
43143;DHT22;28750;59.842;17.584;2023-02-13T18:50:01;3.80;27.00
43143;DHT22;28750;59.842;17.584;2023-02-13T18:52:27;3.90;1.00
43143;DHT22;28750;59.842;17.584;2023-02-13T18:54:54;3.80;1.00
43143;DHT22;28750;59.842;17.584;2023-02-13T18:57:21;3.90;1.00
43143;DHT22;28750;59.842;17.584;2023-02-13T18:59:48;3.70;1.00
43143;DHT22;28750;59.842;17.584;2023-02-13T19:02:15;3.70;17.80